Sagres — CTEC — position and weather

sailwx.info

Track history (hours):
 
Tides and Currents Weather Stations Pressure Air Temp Water Temp Dewpoint Dewpoint Depression Visibility Wind Speed Wind Dir Waves Ship Positions

Sagres (Portugal)

Last reported at 2018-Jun-15 23:20 UTC. Time now 2018-Jun-22 08:57 UTC.
Position N 43°11' W 066°48'.

Length 90 m; draft 5.5 m.

Type: Sailing vessel. MMSI: 263141000.

Date/timePositionNaut miles runAvg speedWind from/ knotsBaromVisibWave heightAir tempDewpointWater temp
2018-Jun-15 23:20N 43°11' W 066°48'1 3.9
2018-Jun-15 23:00N 43°12' W 066°49'2 3.8
2018-Jun-15 22:26N 43°12' W 066°52'2 4.1
2018-Jun-15 22:00N 43°12' W 066°55'124 6.1
2018-Jun-15 01:43N 42°44' W 069°40'1 5.6
2018-Jun-15 01:29N 42°45' W 069°42'2 5.2
2018-Jun-15 01:00N 42°45' W 069°45'7 6.2
2018-Jun-14 23:55N 42°43' W 069°54'3 7.2
2018-Jun-14 23:28N 42°42' W 069°57'4 7.9
2018-Jun-14 22:59N 42°40' W 070°02'4 7.5
2018-Jun-14 22:30N 42°38' W 070°06'4 7.5
2018-Jun-14 22:00N 42°37' W 070°11'4 7.1
2018-Jun-14 21:30N 42°35' W 070°15'4 7.3
2018-Jun-14 21:00N 42°33' W 070°19'4 7.3
2018-Jun-14 20:30N 42°31' W 070°23'4 7.2
2018-Jun-14 20:00N 42°28' W 070°27'4 7.0
2018-Jun-14 19:30N 42°27' W 070°31'4 7.6
2018-Jun-14 19:00N 42°25' W 070°36'4 7.8
2018-Jun-14 18:30N 42°25' W 070°41'4 7.7
2018-Jun-14 18:00N 42°24' W 070°46'5 7.9
2018-Jun-14 17:20N 42°23' W 070°53'2 6.7
2018-Jun-14 17:00N 42°21' W 070°55'4 7.1
2018-Jun-14 16:29N 42°20' W 070°60'2 4.2
2018-Jun-14 15:55N 42°21' W 071°03'0 0.0
2018-Jun-14 15:28N 42°21' W 071°03'0 0.0
2018-Jun-14 14:58N 42°21' W 071°03'0 0.0
2018-Jun-14 14:28N 42°21' W 071°03'0 0.0
2018-Jun-14 13:58N 42°21' W 071°03'0 0.0
2018-Jun-14 13:28N 42°21' W 071°03'0 0.0
2018-Jun-14 12:58N 42°21' W 071°03'0 0.0
2018-Jun-14 12:28N 42°21' W 071°03'0 0.0
2018-Jun-14 11:58N 42°21' W 071°03'0 0.0
2018-Jun-14 11:28N 42°21' W 071°03'0 0.0
2018-Jun-14 10:58N 42°21' W 071°03'0 0.0
2018-Jun-14 10:28N 42°21' W 071°03'0 0.0
2018-Jun-14 09:58N 42°21' W 071°03'0 0.0
2018-Jun-14 09:28N 42°21' W 071°03'0 0.0
2018-Jun-14 08:58N 42°21' W 071°03'0 0.0
2018-Jun-14 08:28N 42°21' W 071°03'0 0.0
2018-Jun-14 07:58N 42°21' W 071°03'0 0.0
2018-Jun-14 07:28N 42°21' W 071°03'0 0.0
2018-Jun-14 06:58N 42°21' W 071°03'0 0.0
2018-Jun-14 06:28N 42°21' W 071°03'0 0.0
2018-Jun-14 05:58N 42°21' W 071°03'0 0.0
2018-Jun-14 05:28N 42°21' W 071°03'0 0.0
2018-Jun-14 04:58N 42°21' W 071°03'0 0.0
2018-Jun-14 04:28N 42°21' W 071°03'0 0.0
2018-Jun-14 03:58N 42°21' W 071°03'0 0.0
2018-Jun-14 03:28N 42°21' W 071°03'0 0.0
2018-Jun-14 02:58N 42°21' W 071°03'0 0.0
2018-Jun-14 02:28N 42°21' W 071°03'0 0.0
2018-Jun-14 01:58N 42°21' W 071°03'0 0.0
2018-Jun-14 01:28N 42°21' W 071°03'0 0.0
2018-Jun-14 00:58N 42°21' W 071°03'0 0.0
2018-Jun-14 00:28N 42°21' W 071°03'0 0.0
2018-Jun-13 23:58N 42°21' W 071°03'0 0.0
2018-Jun-13 23:28N 42°21' W 071°03'0 0.0
2018-Jun-13 22:58N 42°21' W 071°03'0 0.0
2018-Jun-13 22:28N 42°21' W 071°03'0 0.0
2018-Jun-13 21:58N 42°21' W 071°03'0 0.0
2018-Jun-13 21:28N 42°21' W 071°03'0 0.0
2018-Jun-13 20:58N 42°21' W 071°03'0 0.0
2018-Jun-13 20:28N 42°21' W 071°03'0 0.0
2018-Jun-13 19:58N 42°21' W 071°03'0 0.0
2018-Jun-13 19:28N 42°21' W 071°03'0 0.0
2018-Jun-13 18:58N 42°21' W 071°03'0 0.0
2018-Jun-13 18:28N 42°21' W 071°03'0 0.0
2018-Jun-13 17:55N 42°21' W 071°03'0 0.0
2018-Jun-13 17:28N 42°21' W 071°03'0 0.0
2018-Jun-13 16:58N 42°21' W 071°03'0 0.0
2018-Jun-13 16:28N 42°21' W 071°03'0 0.0
2018-Jun-13 15:58N 42°21' W 071°03'0 0.0
2018-Jun-13 15:28N 42°21' W 071°03'0 0.0
2018-Jun-13 14:58N 42°21' W 071°03'0 0.0
2018-Jun-13 14:28N 42°21' W 071°03'0 0.0
2018-Jun-13 13:58N 42°21' W 071°03'0 0.0
2018-Jun-13 13:28N 42°21' W 071°03'0 0.0
2018-Jun-13 12:55N 42°21' W 071°03'0 0.0
2018-Jun-13 12:28N 42°21' W 071°03'0 0.0
2018-Jun-13 11:58N 42°21' W 071°03'0 0.0
2018-Jun-13 11:28N 42°21' W 071°03'0 0.0
2018-Jun-13 10:58N 42°21' W 071°03'0 0.0
2018-Jun-13 10:28N 42°21' W 071°03'0 0.0
2018-Jun-13 09:58N 42°21' W 071°03'0 0.0
2018-Jun-13 09:28N 42°21' W 071°03'0 0.0
2018-Jun-13 08:58N 42°21' W 071°03'0 0.0
2018-Jun-13 08:28N 42°21' W 071°03'0 0.0
2018-Jun-13 07:58N 42°21' W 071°03'0 0.0
2018-Jun-13 07:28N 42°21' W 071°03'0 0.0
2018-Jun-13 06:58N 42°21' W 071°03'0 0.0
2018-Jun-13 06:28N 42°21' W 071°03'0 0.0
2018-Jun-13 05:58N 42°21' W 071°03'0 0.0
2018-Jun-13 05:28N 42°21' W 071°03'0 0.0
2018-Jun-13 04:58N 42°21' W 071°03'0 0.0
2018-Jun-13 04:28N 42°21' W 071°03'0 0.0
2018-Jun-13 03:58N 42°21' W 071°03'0 0.0
2018-Jun-13 03:28N 42°21' W 071°03'0 0.0
2018-Jun-13 02:58N 42°21' W 071°03'0 0.0
2018-Jun-13 02:28N 42°21' W 071°03'0 0.0
2018-Jun-13 01:58N 42°21' W 071°03'0 0.0
2018-Jun-13 01:28N 42°21' W 071°03'0 0.0
2018-Jun-13 00:58N 42°21' W 071°03'0 0.0
2018-Jun-13 00:28N 42°21' W 071°03'0 0.0
2018-Jun-12 23:58N 42°21' W 071°03'0 0.0
2018-Jun-12 23:28N 42°21' W 071°03'0 0.0
2018-Jun-12 22:58N 42°21' W 071°03'0 0.0
2018-Jun-12 22:28N 42°21' W 071°03'0 0.0
2018-Jun-12 21:58N 42°21' W 071°03'0 0.0
2018-Jun-12 21:28N 42°21' W 071°03'0 0.0
2018-Jun-12 20:58N 42°21' W 071°03'0 0.0
2018-Jun-12 20:28N 42°21' W 071°03'0 0.0
2018-Jun-12 19:58N 42°21' W 071°03'0 0.0
2018-Jun-12 19:28N 42°21' W 071°03'0 0.0
2018-Jun-12 18:58N 42°21' W 071°03'0 0.0
2018-Jun-12 18:28N 42°21' W 071°03'0 0.0
2018-Jun-12 17:58N 42°21' W 071°03'0 0.0
2018-Jun-12 17:28N 42°21' W 071°03'0 0.0
2018-Jun-12 16:58N 42°21' W 071°03'0 0.0
2018-Jun-12 16:28N 42°21' W 071°03'0 0.0
2018-Jun-12 15:58N 42°21' W 071°03'0 0.0
2018-Jun-12 15:28N 42°21' W 071°03'0 0.0
2018-Jun-12 14:58N 42°21' W 071°03'0 0.0
2018-Jun-12 14:28N 42°21' W 071°03'0 0.0
2018-Jun-12 13:58N 42°21' W 071°03'0 0.0
2018-Jun-12 13:28N 42°21' W 071°03'0 0.0
2018-Jun-12 12:58N 42°21' W 071°03'0 0.0
2018-Jun-12 12:28N 42°21' W 071°03'0 0.0
2018-Jun-12 11:58N 42°21' W 071°03'0 0.0
2018-Jun-12 11:28N 42°21' W 071°03'0 0.0
2018-Jun-12 10:58N 42°21' W 071°03'0 0.0
2018-Jun-12 10:28N 42°21' W 071°03'0 0.0
2018-Jun-12 09:58N 42°21' W 071°03'0 0.0
2018-Jun-12 09:28N 42°21' W 071°03'0 0.0
2018-Jun-12 08:58N 42°21' W 071°03'0 0.0
2018-Jun-12 08:28N 42°21' W 071°03'0 0.0
2018-Jun-12 07:58N 42°21' W 071°03'0 0.0
2018-Jun-12 07:28N 42°21' W 071°03'0 0.0
2018-Jun-12 06:58N 42°21' W 071°03'0 0.0
2018-Jun-12 06:28N 42°21' W 071°03'0 0.0
2018-Jun-12 05:58N 42°21' W 071°03'0 0.0
2018-Jun-12 05:28N 42°21' W 071°03'0 0.0
2018-Jun-12 04:58N 42°21' W 071°03'0 0.0
2018-Jun-12 04:28N 42°21' W 071°03'0 0.0
2018-Jun-12 03:58N 42°21' W 071°03'0 0.0
2018-Jun-12 03:28N 42°21' W 071°03'0 0.0
2018-Jun-12 02:58N 42°21' W 071°03'0 0.0
2018-Jun-12 02:28N 42°21' W 071°03'0 0.0
2018-Jun-12 01:58N 42°21' W 071°03'0 0.0
2018-Jun-12 01:28N 42°21' W 071°03'0 0.0
2018-Jun-12 00:58N 42°21' W 071°03'0 0.0
2018-Jun-12 00:28N 42°21' W 071°03'0 0.0
2018-Jun-11 23:55N 42°21' W 071°03'0 0.0
2018-Jun-11 23:28N 42°21' W 071°03'0 0.0
2018-Jun-11 22:58N 42°21' W 071°03'0 0.0
2018-Jun-11 22:28N 42°21' W 071°03'0 0.0
2018-Jun-11 21:58N 42°21' W 071°03'0 0.0
2018-Jun-11 21:28N 42°21' W 071°03'0 0.0
2018-Jun-11 20:58N 42°21' W 071°03'0 0.0
2018-Jun-11 20:28N 42°21' W 071°03'0 0.0
2018-Jun-11 19:58N 42°21' W 071°03'0 0.0
2018-Jun-11 19:28N 42°21' W 071°03'0 0.0
2018-Jun-11 18:55N 42°21' W 071°03'0 0.0
2018-Jun-11 18:28N 42°21' W 071°03'0 0.0
2018-Jun-11 17:58N 42°21' W 071°03'0 0.0
2018-Jun-11 17:28N 42°21' W 071°03'0 0.0
2018-Jun-11 16:58N 42°21' W 071°03'0 0.0
2018-Jun-11 16:28N 42°21' W 071°03'0 0.0
2018-Jun-11 15:58N 42°21' W 071°03'0 0.0
2018-Jun-11 15:28N 42°21' W 071°03'0 0.0
2018-Jun-11 15:00N 42°21' W 071°03'0 0.0
2018-Jun-11 14:30N 42°21' W 071°03'0 0.0
2018-Jun-11 14:00N 42°21' W 071°03'0 0.0
2018-Jun-11 13:30N 42°21' W 071°03'0 0.0
2018-Jun-11 13:00N 42°21' W 071°03'0 0.0
2018-Jun-11 12:30N 42°21' W 071°03'0 0.0
2018-Jun-11 12:00N 42°21' W 071°03'0 0.0
2018-Jun-11 11:30N 42°21' W 071°03'0 0.0
2018-Jun-11 11:00N 42°21' W 071°03'0 0.0
2018-Jun-11 10:30N 42°21' W 071°03'0 0.0
2018-Jun-11 10:00N 42°21' W 071°03'0 0.0
2018-Jun-11 09:30N 42°21' W 071°03'0 0.0
2018-Jun-11 09:00N 42°21' W 071°03'0 0.0
2018-Jun-11 08:27N 42°21' W 071°03'0 0.0
2018-Jun-10 02:08N 42°21' W 071°03'0 0.0
2018-Jun-10 01:55N 42°21' W 071°03'0 0.0
2018-Jun-10 01:28N 42°21' W 071°03'0 0.0
2018-Jun-10 00:59N 42°21' W 071°03'0 0.0
2018-Jun-10 00:29N 42°21' W 071°03'0 0.0
2018-Jun-09 23:59N 42°21' W 071°03'0 0.0
2018-Jun-09 23:29N 42°21' W 071°03'0 0.0
2018-Jun-09 22:59N 42°21' W 071°03'0 0.0
2018-Jun-09 22:29N 42°21' W 071°03'0 0.0
2018-Jun-09 21:59N 42°21' W 071°03'0 0.0
2018-Jun-09 21:29N 42°21' W 071°03'0 0.0
2018-Jun-09 20:59N 42°21' W 071°03'0 0.0
2018-Jun-09 20:29N 42°21' W 071°03'0 0.0
2018-Jun-09 19:59N 42°21' W 071°03'0 0.0
2018-Jun-09 19:29N 42°21' W 071°03'0 0.0
2018-Jun-09 18:59N 42°21' W 071°03'0 0.0
2018-Jun-09 18:29N 42°21' W 071°03'0 0.0
2018-Jun-09 18:00N 42°21' W 071°03'1 1.8
2018-Jun-09 17:30N 42°21' W 071°01'3 5.6
2018-Jun-09 17:01N 42°20' W 070°58'3 5.8
2018-Jun-09 16:31N 42°22' W 070°55'4 7.2
2018-Jun-09 16:00N 42°23' W 070°50'2 4.0
2018-Jun-09 15:30N 42°24' W 070°48'4 4.3
2018-Jun-09 14:31N 42°24' W 070°42'3 5.5
2018-Jun-09 14:01N 42°27' W 070°41'3 5.3
2018-Jun-09 13:30N 42°30' W 070°41'2 4.8
2018-Jun-09 13:01N 42°31' W 070°38'2 3.9
2018-Jun-09 12:30N 42°30' W 070°35'2 4.9
2018-Jun-09 12:00N 42°27' W 070°35'2 4.6
2018-Jun-09 11:30N 42°25' W 070°34'2 4.4
2018-Jun-09 11:00N 42°23' W 070°33'2 4.1
2018-Jun-09 10:30N 42°21' W 070°32'3 5.5
2018-Jun-09 10:00N 42°21' W 070°28'3 5.7
2018-Jun-09 09:30N 42°21' W 070°24'3 5.7
2018-Jun-09 09:00N 42°21' W 070°20'3 5.9
2018-Jun-09 08:31N 42°21' W 070°16'3 6.0
2018-Jun-09 08:00N 42°21' W 070°12'3 6.0
2018-Jun-09 07:31N 42°21' W 070°08'3 5.8
2018-Jun-09 07:00N 42°20' W 070°04'3 5.3
2018-Jun-09 06:30N 42°20' W 070°01'2 3.9
2018-Jun-09 06:00N 42°19' W 069°59'3 5.1
2018-Jun-09 05:31N 42°16' W 069°58'3 5.5
2018-Jun-09 05:01N 42°14' W 069°56'3 6.6
2018-Jun-09 04:30N 42°11' W 069°54'3 6.5
2018-Jun-09 03:59N 42°08' W 069°51'105 5.2
2018-Jun-08 07:45N 40°23' W 069°43'3 6.3
2018-Jun-08 07:21N 40°23' W 069°46'2 6.3
2018-Jun-08 06:58N 40°23' W 069°49'3 6.2
2018-Jun-08 06:30N 40°23' W 069°53'3 6.0
2018-Jun-08 06:00N 40°23' W 069°57'4 6.1
2018-Jun-08 05:17N 40°23' W 070°03'2 6.2
2018-Jun-08 04:54N 40°23' W 070°06'2 6.3
2018-Jun-08 04:30N 40°23' W 070°09'10 6.4
2018-Jun-08 03:00N 40°28' W 070°20'  
Track history (hours):
 
Tides and Currents Weather Stations Pressure Air Temp Water Temp Dewpoint Dewpoint Depression Visibility Wind Speed Wind Dir Waves Ship Positions

Sagres (Portugal)

Last reported at 2018-Jun-15 23:20 UTC. Time now 2018-Jun-22 08:57 UTC.
Position N 43°11' W 066°48'.

Length 90 m; draft 5.5 m.

Type: Sailing vessel. MMSI: 263141000.

Date/timePositionNaut miles runAvg speedWind from/ knotsBaromVisibWave heightAir tempDewpointWater temp
2018-Jun-15 23:20N 43°11' W 066°48'1 3.9
2018-Jun-15 23:00N 43°12' W 066°49'2 3.8
2018-Jun-15 22:26N 43°12' W 066°52'2 4.1
2018-Jun-15 22:00N 43°12' W 066°55'124 6.1
2018-Jun-15 01:43N 42°44' W 069°40'1 5.6
2018-Jun-15 01:29N 42°45' W 069°42'2 5.2
2018-Jun-15 01:00N 42°45' W 069°45'7 6.2
2018-Jun-14 23:55N 42°43' W 069°54'3 7.2
2018-Jun-14 23:28N 42°42' W 069°57'4 7.9
2018-Jun-14 22:59N 42°40' W 070°02'4 7.5
2018-Jun-14 22:30N 42°38' W 070°06'4 7.5
2018-Jun-14 22:00N 42°37' W 070°11'4 7.1
2018-Jun-14 21:30N 42°35' W 070°15'4 7.3
2018-Jun-14 21:00N 42°33' W 070°19'4 7.3
2018-Jun-14 20:30N 42°31' W 070°23'4 7.2
2018-Jun-14 20:00N 42°28' W 070°27'4 7.0
2018-Jun-14 19:30N 42°27' W 070°31'4 7.6
2018-Jun-14 19:00N 42°25' W 070°36'4 7.8
2018-Jun-14 18:30N 42°25' W 070°41'4 7.7
2018-Jun-14 18:00N 42°24' W 070°46'5 7.9
2018-Jun-14 17:20N 42°23' W 070°53'2 6.7
2018-Jun-14 17:00N 42°21' W 070°55'4 7.1
2018-Jun-14 16:29N 42°20' W 070°60'2 4.2
2018-Jun-14 15:55N 42°21' W 071°03'0 0.0
2018-Jun-14 15:28N 42°21' W 071°03'0 0.0
2018-Jun-14 14:58N 42°21' W 071°03'0 0.0
2018-Jun-14 14:28N 42°21' W 071°03'0 0.0
2018-Jun-14 13:58N 42°21' W 071°03'0 0.0
2018-Jun-14 13:28N 42°21' W 071°03'0 0.0
2018-Jun-14 12:58N 42°21' W 071°03'0 0.0
2018-Jun-14 12:28N 42°21' W 071°03'0 0.0
2018-Jun-14 11:58N 42°21' W 071°03'0 0.0
2018-Jun-14 11:28N 42°21' W 071°03'0 0.0
2018-Jun-14 10:58N 42°21' W 071°03'0 0.0
2018-Jun-14 10:28N 42°21' W 071°03'0 0.0
2018-Jun-14 09:58N 42°21' W 071°03'0 0.0
2018-Jun-14 09:28N 42°21' W 071°03'0 0.0
2018-Jun-14 08:58N 42°21' W 071°03'0 0.0
2018-Jun-14 08:28N 42°21' W 071°03'0 0.0
2018-Jun-14 07:58N 42°21' W 071°03'0 0.0
2018-Jun-14 07:28N 42°21' W 071°03'0 0.0
2018-Jun-14 06:58N 42°21' W 071°03'0 0.0
2018-Jun-14 06:28N 42°21' W 071°03'0 0.0
2018-Jun-14 05:58N 42°21' W 071°03'0 0.0
2018-Jun-14 05:28N 42°21' W 071°03'0 0.0
2018-Jun-14 04:58N 42°21' W 071°03'0 0.0
2018-Jun-14 04:28N 42°21' W 071°03'0 0.0
2018-Jun-14 03:58N 42°21' W 071°03'0 0.0
2018-Jun-14 03:28N 42°21' W 071°03'0 0.0
2018-Jun-14 02:58N 42°21' W 071°03'0 0.0
2018-Jun-14 02:28N 42°21' W 071°03'0 0.0
2018-Jun-14 01:58N 42°21' W 071°03'0 0.0
2018-Jun-14 01:28N 42°21' W 071°03'0 0.0
2018-Jun-14 00:58N 42°21' W 071°03'0 0.0
2018-Jun-14 00:28N 42°21' W 071°03'0 0.0
2018-Jun-13 23:58N 42°21' W 071°03'0 0.0
2018-Jun-13 23:28N 42°21' W 071°03'0 0.0
2018-Jun-13 22:58N 42°21' W 071°03'0 0.0
2018-Jun-13 22:28N 42°21' W 071°03'0 0.0
2018-Jun-13 21:58N 42°21' W 071°03'0 0.0
2018-Jun-13 21:28N 42°21' W 071°03'0 0.0
2018-Jun-13 20:58N 42°21' W 071°03'0 0.0
2018-Jun-13 20:28N 42°21' W 071°03'0 0.0
2018-Jun-13 19:58N 42°21' W 071°03'0 0.0
2018-Jun-13 19:28N 42°21' W 071°03'0 0.0
2018-Jun-13 18:58N 42°21' W 071°03'0 0.0
2018-Jun-13 18:28N 42°21' W 071°03'0 0.0
2018-Jun-13 17:55N 42°21' W 071°03'0 0.0
2018-Jun-13 17:28N 42°21' W 071°03'0 0.0
2018-Jun-13 16:58N 42°21' W 071°03'0 0.0
2018-Jun-13 16:28N 42°21' W 071°03'0 0.0
2018-Jun-13 15:58N 42°21' W 071°03'0 0.0
2018-Jun-13 15:28N 42°21' W 071°03'0 0.0
2018-Jun-13 14:58N 42°21' W 071°03'0 0.0
2018-Jun-13 14:28N 42°21' W 071°03'0 0.0
2018-Jun-13 13:58N 42°21' W 071°03'0 0.0
2018-Jun-13 13:28N 42°21' W 071°03'0 0.0
2018-Jun-13 12:55N 42°21' W 071°03'0 0.0
2018-Jun-13 12:28N 42°21' W 071°03'0 0.0
2018-Jun-13 11:58N 42°21' W 071°03'0 0.0
2018-Jun-13 11:28N 42°21' W 071°03'0 0.0
2018-Jun-13 10:58N 42°21' W 071°03'0 0.0
2018-Jun-13 10:28N 42°21' W 071°03'0 0.0
2018-Jun-13 09:58N 42°21' W 071°03'0 0.0
2018-Jun-13 09:28N 42°21' W 071°03'0 0.0
2018-Jun-13 08:58N 42°21' W 071°03'0 0.0
2018-Jun-13 08:28N 42°21' W 071°03'0 0.0
2018-Jun-13 07:58N 42°21' W 071°03'0 0.0
2018-Jun-13 07:28N 42°21' W 071°03'0 0.0
2018-Jun-13 06:58N 42°21' W 071°03'0 0.0
2018-Jun-13 06:28N 42°21' W 071°03'0 0.0
2018-Jun-13 05:58N 42°21' W 071°03'0 0.0
2018-Jun-13 05:28N 42°21' W 071°03'0 0.0
2018-Jun-13 04:58N 42°21' W 071°03'0 0.0
2018-Jun-13 04:28N 42°21' W 071°03'0 0.0
2018-Jun-13 03:58N 42°21' W 071°03'0 0.0
2018-Jun-13 03:28N 42°21' W 071°03'0 0.0
2018-Jun-13 02:58N 42°21' W 071°03'0 0.0
2018-Jun-13 02:28N 42°21' W 071°03'0 0.0
2018-Jun-13 01:58N 42°21' W 071°03'0 0.0
2018-Jun-13 01:28N 42°21' W 071°03'0 0.0
2018-Jun-13 00:58N 42°21' W 071°03'0 0.0
2018-Jun-13 00:28N 42°21' W 071°03'0 0.0
2018-Jun-12 23:58N 42°21' W 071°03'0 0.0
2018-Jun-12 23:28N 42°21' W 071°03'0 0.0
2018-Jun-12 22:58N 42°21' W 071°03'0 0.0
2018-Jun-12 22:28N 42°21' W 071°03'0 0.0
2018-Jun-12 21:58N 42°21' W 071°03'0 0.0
2018-Jun-12 21:28N 42°21' W 071°03'0 0.0
2018-Jun-12 20:58N 42°21' W 071°03'0 0.0
2018-Jun-12 20:28N 42°21' W 071°03'0 0.0
2018-Jun-12 19:58N 42°21' W 071°03'0 0.0
2018-Jun-12 19:28N 42°21' W 071°03'0 0.0
2018-Jun-12 18:58N 42°21' W 071°03'0 0.0
2018-Jun-12 18:28N 42°21' W 071°03'0 0.0
2018-Jun-12 17:58N 42°21' W 071°03'0 0.0
2018-Jun-12 17:28N 42°21' W 071°03'0 0.0
2018-Jun-12 16:58N 42°21' W 071°03'0 0.0
2018-Jun-12 16:28N 42°21' W 071°03'0 0.0
2018-Jun-12 15:58N 42°21' W 071°03'0 0.0
2018-Jun-12 15:28N 42°21' W 071°03'0 0.0
2018-Jun-12 14:58N 42°21' W 071°03'0 0.0
2018-Jun-12 14:28N 42°21' W 071°03'0 0.0
2018-Jun-12 13:58N 42°21' W 071°03'0 0.0
2018-Jun-12 13:28N 42°21' W 071°03'0 0.0
2018-Jun-12 12:58N 42°21' W 071°03'0 0.0
2018-Jun-12 12:28N 42°21' W 071°03'0 0.0
2018-Jun-12 11:58N 42°21' W 071°03'0 0.0
2018-Jun-12 11:28N 42°21' W 071°03'0 0.0
2018-Jun-12 10:58N 42°21' W 071°03'0 0.0
2018-Jun-12 10:28N 42°21' W 071°03'0 0.0
2018-Jun-12 09:58N 42°21' W 071°03'0 0.0
2018-Jun-12 09:28N 42°21' W 071°03'0 0.0
2018-Jun-12 08:58N 42°21' W 071°03'0 0.0
2018-Jun-12 08:28N 42°21' W 071°03'0 0.0
2018-Jun-12 07:58N 42°21' W 071°03'0 0.0
2018-Jun-12 07:28N 42°21' W 071°03'0 0.0
2018-Jun-12 06:58N 42°21' W 071°03'0 0.0
2018-Jun-12 06:28N 42°21' W 071°03'0 0.0
2018-Jun-12 05:58N 42°21' W 071°03'0 0.0
2018-Jun-12 05:28N 42°21' W 071°03'0 0.0
2018-Jun-12 04:58N 42°21' W 071°03'0 0.0
2018-Jun-12 04:28N 42°21' W 071°03'0 0.0
2018-Jun-12 03:58N 42°21' W 071°03'0 0.0
2018-Jun-12 03:28N 42°21' W 071°03'0 0.0
2018-Jun-12 02:58N 42°21' W 071°03'0 0.0
2018-Jun-12 02:28N 42°21' W 071°03'0 0.0
2018-Jun-12 01:58N 42°21' W 071°03'0 0.0
2018-Jun-12 01:28N 42°21' W 071°03'0 0.0
2018-Jun-12 00:58N 42°21' W 071°03'0 0.0
2018-Jun-12 00:28N 42°21' W 071°03'0 0.0
2018-Jun-11 23:55N 42°21' W 071°03'0 0.0
2018-Jun-11 23:28N 42°21' W 071°03'0 0.0
2018-Jun-11 22:58N 42°21' W 071°03'0 0.0
2018-Jun-11 22:28N 42°21' W 071°03'0 0.0
2018-Jun-11 21:58N 42°21' W 071°03'0 0.0
2018-Jun-11 21:28N 42°21' W 071°03'0 0.0
2018-Jun-11 20:58N 42°21' W 071°03'0 0.0
2018-Jun-11 20:28N 42°21' W 071°03'0 0.0
2018-Jun-11 19:58N 42°21' W 071°03'0 0.0
2018-Jun-11 19:28N 42°21' W 071°03'0 0.0
2018-Jun-11 18:55N 42°21' W 071°03'0 0.0
2018-Jun-11 18:28N 42°21' W 071°03'0 0.0
2018-Jun-11 17:58N 42°21' W 071°03'0 0.0
2018-Jun-11 17:28N 42°21' W 071°03'0 0.0
2018-Jun-11 16:58N 42°21' W 071°03'0 0.0
2018-Jun-11 16:28N 42°21' W 071°03'0 0.0
2018-Jun-11 15:58N 42°21' W 071°03'0 0.0
2018-Jun-11 15:28N 42°21' W 071°03'0 0.0
2018-Jun-11 15:00N 42°21' W 071°03'0 0.0
2018-Jun-11 14:30N 42°21' W 071°03'0 0.0
2018-Jun-11 14:00N 42°21' W 071°03'0 0.0
2018-Jun-11 13:30N 42°21' W 071°03'0 0.0
2018-Jun-11 13:00N 42°21' W 071°03'0 0.0
2018-Jun-11 12:30N 42°21' W 071°03'0 0.0
2018-Jun-11 12:00N 42°21' W 071°03'0 0.0
2018-Jun-11 11:30N 42°21' W 071°03'0 0.0
2018-Jun-11 11:00N 42°21' W 071°03'0 0.0
2018-Jun-11 10:30N 42°21' W 071°03'0 0.0
2018-Jun-11 10:00N 42°21' W 071°03'0 0.0
2018-Jun-11 09:30N 42°21' W 071°03'0 0.0
2018-Jun-11 09:00N 42°21' W 071°03'0 0.0
2018-Jun-11 08:27N 42°21' W 071°03'0 0.0
2018-Jun-10 02:08N 42°21' W 071°03'0 0.0
2018-Jun-10 01:55N 42°21' W 071°03'0 0.0
2018-Jun-10 01:28N 42°21' W 071°03'0 0.0
2018-Jun-10 00:59N 42°21' W 071°03'0 0.0
2018-Jun-10 00:29N 42°21' W 071°03'0 0.0
2018-Jun-09 23:59N 42°21' W 071°03'0 0.0
2018-Jun-09 23:29N 42°21' W 071°03'0 0.0
2018-Jun-09 22:59N 42°21' W 071°03'0 0.0
2018-Jun-09 22:29N 42°21' W 071°03'0 0.0
2018-Jun-09 21:59N 42°21' W 071°03'0 0.0
2018-Jun-09 21:29N 42°21' W 071°03'0 0.0
2018-Jun-09 20:59N 42°21' W 071°03'0 0.0
2018-Jun-09 20:29N 42°21' W 071°03'0 0.0
2018-Jun-09 19:59N 42°21' W 071°03'0 0.0
2018-Jun-09 19:29N 42°21' W 071°03'0 0.0
2018-Jun-09 18:59N 42°21' W 071°03'0 0.0
2018-Jun-09 18:29N 42°21' W 071°03'0 0.0
2018-Jun-09 18:00N 42°21' W 071°03'1 1.8
2018-Jun-09 17:30N 42°21' W 071°01'3 5.6
2018-Jun-09 17:01N 42°20' W 070°58'3 5.8
2018-Jun-09 16:31N 42°22' W 070°55'4 7.2
2018-Jun-09 16:00N 42°23' W 070°50'2 4.0
2018-Jun-09 15:30N 42°24' W 070°48'4 4.3
2018-Jun-09 14:31N 42°24' W 070°42'3 5.5
2018-Jun-09 14:01N 42°27' W 070°41'3 5.3
2018-Jun-09 13:30N 42°30' W 070°41'2 4.8
2018-Jun-09 13:01N 42°31' W 070°38'2 3.9
2018-Jun-09 12:30N 42°30' W 070°35'2 4.9
2018-Jun-09 12:00N 42°27' W 070°35'2 4.6
2018-Jun-09 11:30N 42°25' W 070°34'2 4.4
2018-Jun-09 11:00N 42°23' W 070°33'2 4.1
2018-Jun-09 10:30N 42°21' W 070°32'3 5.5
2018-Jun-09 10:00N 42°21' W 070°28'3 5.7
2018-Jun-09 09:30N 42°21' W 070°24'3 5.7
2018-Jun-09 09:00N 42°21' W 070°20'3 5.9
2018-Jun-09 08:31N 42°21' W 070°16'3 6.0
2018-Jun-09 08:00N 42°21' W 070°12'3 6.0
2018-Jun-09 07:31N 42°21' W 070°08'3 5.8
2018-Jun-09 07:00N 42°20' W 070°04'3 5.3
2018-Jun-09 06:30N 42°20' W 070°01'2 3.9
2018-Jun-09 06:00N 42°19' W 069°59'3 5.1
2018-Jun-09 05:31N 42°16' W 069°58'3 5.5
2018-Jun-09 05:01N 42°14' W 069°56'3 6.6
2018-Jun-09 04:30N 42°11' W 069°54'3 6.5
2018-Jun-09 03:59N 42°08' W 069°51'105 5.2
2018-Jun-08 07:45N 40°23' W 069°43'3 6.3
2018-Jun-08 07:21N 40°23' W 069°46'2 6.3
2018-Jun-08 06:58N 40°23' W 069°49'3 6.2
2018-Jun-08 06:30N 40°23' W 069°53'3 6.0
2018-Jun-08 06:00N 40°23' W 069°57'4 6.1
2018-Jun-08 05:17N 40°23' W 070°03'2 6.2
2018-Jun-08 04:54N 40°23' W 070°06'2 6.3
2018-Jun-08 04:30N 40°23' W 070°09'10 6.4
2018-Jun-08 03:00N 40°28' W 070°20'  

Dump ship's entire track history